sensor_id;sensor_type;location;lat;lon;timestamp;temperature;humidity
71551;DHT22;59367;48.414;9.872;2023-04-03T00:00:59;6.81772995;59.75036621
71551;DHT22;59367;48.414;9.872;2023-04-03T00:02:06;6.81772995;59.79156494
71551;DHT22;59367;48.414;9.872;2023-04-03T00:03:13;6.80437851;59.62677002
71551;DHT22;59367;48.414;9.872;2023-04-03T00:04:20;6.80437851;59.8815918
71551;DHT22;59367;48.414;9.872;2023-04-03T00:05:27;6.833751678;59.96551514
71551;DHT22;59367;48.414;9.872;2023-04-03T00:06:34;6.80437851;59.40551758
71551;DHT22;59367;48.414;9.872;2023-04-03T00:07:41;6.791027069;59.67559814
71551;DHT22;59367;48.414;9.872;2023-04-03T00:08:48;6.833751678;59.81292725
71551;DHT22;59367;48.414;9.872;2023-04-03T00:09:55;6.833751678;59.71374512
71551;DHT22;59367;48.414;9.872;2023-04-03T00:11:02;6.81772995;59.17358398
71551;DHT22;59367;48.414;9.872;2023-04-03T00:12:09;6.81772995;59.3963623
71551;DHT22;59367;48.414;9.872;2023-04-03T00:13:17;6.833751678;59.06677246
71551;DHT22;59367;48.414;9.872;2023-04-03T00:14:24;6.791027069;59.02099609
71551;DHT22;59367;48.414;9.872;2023-04-03T00:15:31;6.7616539;59.17663574
71551;DHT22;59367;48.414;9.872;2023-04-03T00:16:38;6.777675629;59.00726318
71551;DHT22;59367;48.414;9.872;2023-04-03T00:17:45;6.777675629;59.08660889
71551;DHT22;59367;48.414;9.872;2023-04-03T00:18:52;6.70557785;59.26971436
71551;DHT22;59367;48.414;9.872;2023-04-03T00:19:58;6.69222641;59.20562744
71551;DHT22;59367;48.414;9.872;2023-04-03T00:21:07;6.622795105;59.37805176
71551;DHT22;59367;48.414;9.872;2023-04-03T00:22:14;6.649501801;59.45281982
71551;DHT22;59367;48.414;9.872;2023-04-03T00:23:21;6.63615036;59.2880249
71551;DHT22;59367;48.414;9.872;2023-04-03T00:24:28;6.649501801;59.50317383
71551;DHT22;59367;48.414;9.872;2023-04-03T00:25:35;6.63615036;59.69085693
71551;DHT22;59367;48.414;9.872;2023-04-03T00:26:42;6.622795105;59.52911377
71551;DHT22;59367;48.414;9.872;2023-04-03T00:27:49;6.622795105;59.46044922
71551;DHT22;59367;48.414;9.872;2023-04-03T00:28:56;6.577400208;59.60388184
71551;DHT22;59367;48.414;9.872;2023-04-03T00:30:03;6.561378479;59.75341797
71551;DHT22;59367;48.414;9.872;2023-04-03T00:31:10;6.548027039;59.87243652
71551;DHT22;59367;48.414;9.872;2023-04-03T00:32:17;6.521324158;59.76715088
71551;DHT22;59367;48.414;9.872;2023-04-03T00:33:24;6.505302429;59.99755859
71551;DHT22;59367;48.414;9.872;2023-04-03T00:34:31;6.521324158;59.93804932
71551;DHT22;59367;48.414;9.872;2023-04-03T00:35:38;6.521324158;60.02960205
71551;DHT22;59367;48.414;9.872;2023-04-03T00:36:45;6.521324158;59.95941162
71551;DHT22;59367;48.414;9.872;2023-04-03T00:37:54;6.548027039;59.87243652
71551;DHT22;59367;48.414;9.872;2023-04-03T00:39:02;6.548027039;59.91363525
71551;DHT22;59367;48.414;9.872;2023-04-03T00:40:11;6.548027039;59.95178223
71551;DHT22;59367;48.414;9.872;2023-04-03T00:41:18;6.548027039;59.80987549
71551;DHT22;59367;48.414;9.872;2023-04-03T00:42:25;6.548027039;59.74121094
71551;DHT22;59367;48.414;9.872;2023-04-03T00:43:32;6.521324158;59.98840332
71551;DHT22;59367;48.414;9.872;2023-04-03T00:45:59;6.577400208;59.92736816
71551;DHT22;59367;48.414;9.872;2023-04-03T00:47:09;6.577400208;59.78546143
71551;DHT22;59367;48.414;9.872;2023-04-03T00:48:20;6.561378479;59.80377197
71551;DHT22;59367;48.414;9.872;2023-04-03T00:49:28;6.577400208;59.88769531
71551;DHT22;59367;48.414;9.872;2023-04-03T00:50:37;6.534675598;59.59777832
71551;DHT22;59367;48.414;9.872;2023-04-03T00:51:45;6.505302429;59.45281982
71551;DHT22;59367;48.414;9.872;2023-04-03T00:52:53;6.505302429;59.63134766
71551;DHT22;59367;48.414;9.872;2023-04-03T00:54:02;6.534675598;59.56726074
71551;DHT22;59367;48.414;9.872;2023-04-03T00:55:12;6.534675598;59.63592529
71551;DHT22;59367;48.414;9.872;2023-04-03T00:56:23;6.521324158;59.375
71551;DHT22;59367;48.414;9.872;2023-04-03T00:57:32;6.521324158;59.03167725
71551;DHT22;59367;48.414;9.872;2023-04-03T00:58:42;6.505302429;58.63342285
71551;DHT22;59367;48.414;9.872;2023-04-03T00:59:54;6.478599548;58.33892822
71551;DHT22;59367;48.414;9.872;2023-04-03T01:01:05;6.465248108;58.36791992
71551;DHT22;59367;48.414;9.872;2023-04-03T01:02:13;6.435874939;58.5647583
71551;DHT22;59367;48.414;9.872;2023-04-03T01:03:20;6.435874939;58.47320557
71551;DHT22;59367;48.414;9.872;2023-04-03T01:04:34;6.40650177;58.79211426
71551;DHT22;59367;48.414;9.872;2023-04-03T01:05:44;6.39315033;58.67919922
71551;DHT22;59367;48.414;9.872;2023-04-03T01:06:51;6.40650177;58.21685791
71551;DHT22;59367;48.414;9.872;2023-04-03T01:07:58;6.422523499;58.40301514
71551;DHT22;59367;48.414;9.872;2023-04-03T01:09:07;6.449226379;58.33435059
71551;DHT22;59367;48.414;9.872;2023-04-03T01:10:16;6.465248108;58.01391602
71551;DHT22;59367;48.414;9.872;2023-04-03T01:11:23;6.449226379;57.80029297
71551;DHT22;59367;48.414;9.872;2023-04-03T01:12:33;6.449226379;57.80029297
71551;DHT22;59367;48.414;9.872;2023-04-03T01:13:40;6.449226379;57.59429932
71551;DHT22;59367;48.414;9.872;2023-04-03T01:14:48;6.478599548;56.90765381
71551;DHT22;59367;48.414;9.872;2023-04-03T01:15:56;6.449226379;56.95800781
71551;DHT22;59367;48.414;9.872;2023-04-03T01:17:03;6.449226379;57.03430176
71551;DHT22;59367;48.414;9.872;2023-04-03T01:18:12;6.422523499;56.93359375
71551;DHT22;59367;48.414;9.872;2023-04-03T01:19:20;6.422523499;56.86645508
71551;DHT22;59367;48.414;9.872;2023-04-03T01:20:46;6.39315033;56.71386719
71551;DHT22;59367;48.414;9.872;2023-04-03T01:22:15;6.435874939;56.84814453
71551;DHT22;59367;48.414;9.872;2023-04-03T01:25:15;6.435874939;56.84814453
71551;DHT22;59367;48.414;9.872;2023-04-03T01:26:22;6.422523499;56.76116943
71551;DHT22;59367;48.414;9.872;2023-04-03T01:27:30;6.449226379;56.76422119
71551;DHT22;59367;48.414;9.872;2023-04-03T01:28:38;6.39315033;56.45446777
71551;DHT22;59367;48.414;9.872;2023-04-03T01:29:47;6.40650177;56.82067871
71551;DHT22;59367;48.414;9.872;2023-04-03T01:31:00;6.422523499;56.97631836
71551;DHT22;59367;48.414;9.872;2023-04-03T01:32:09;6.422523499;57.29064941
71551;DHT22;59367;48.414;9.872;2023-04-03T01:33:16;6.379798889;57.16400146
71551;DHT22;59367;48.414;9.872;2023-04-03T01:34:23;6.366443634;56.93511963
71551;DHT22;59367;48.414;9.872;2023-04-03T01:35:31;6.422523499;56.93359375
71551;DHT22;59367;48.414;9.872;2023-04-03T01:36:38;6.449226379;57.12127686
71551;DHT22;59367;48.414;9.872;2023-04-03T01:37:45;6.422523499;57.24639893
71551;DHT22;59367;48.414;9.872;2023-04-03T01:38:52;6.465248108;56.34460449
71551;DHT22;59367;48.414;9.872;2023-04-03T01:39:59;6.449226379;56.35375977
71551;DHT22;59367;48.414;9.872;2023-04-03T01:41:06;6.478599548;56.09741211
71551;DHT22;59367;48.414;9.872;2023-04-03T01:42:13;6.478599548;56.20574951
71551;DHT22;59367;48.414;9.872;2023-04-03T01:43:20;6.505302429;55.82122803
71551;DHT22;59367;48.414;9.872;2023-04-03T01:44:27;6.521324158;55.34973145
71551;DHT22;59367;48.414;9.872;2023-04-03T01:45:34;6.491950989;55.48400879
71551;DHT22;59367;48.414;9.872;2023-04-03T01:46:41;6.478599548;55.42907715
71551;DHT22;59367;48.414;9.872;2023-04-03T01:47:48;6.478599548;55.25512695
71551;DHT22;59367;48.414;9.872;2023-04-03T01:48:55;6.478599548;54.57611084
71551;DHT22;59367;48.414;9.872;2023-04-03T01:50:02;6.435874939;54.55780029
71551;DHT22;59367;48.414;9.872;2023-04-03T01:51:09;6.435874939;54.67834473
71551;DHT22;59367;48.414;9.872;2023-04-03T01:52:16;6.435874939;54.69970703
71551;DHT22;59367;48.414;9.872;2023-04-03T01:53:24;6.40650177;54.61883545
71551;DHT22;59367;48.414;9.872;2023-04-03T01:54:31;6.366443634;54.6585083
71551;DHT22;59367;48.414;9.872;2023-04-03T01:55:38;6.422523499;54.31976318
71551;DHT22;59367;48.414;9.872;2023-04-03T01:56:45;6.422523499;53.8772583
71551;DHT22;59367;48.414;9.872;2023-04-03T01:57:52;6.40650177;53.65753174
71551;DHT22;59367;48.414;9.872;2023-04-03T01:58:59;6.350421906;52.7557373
71551;DHT22;59367;48.414;9.872;2023-04-03T02:00:07;6.350421906;52.5177002
71551;DHT22;59367;48.414;9.872;2023-04-03T02:01:14;6.337070465;52.64587402
71551;DHT22;59367;48.414;9.872;2023-04-03T02:02:21;6.337070465;52.35595703
71551;DHT22;59367;48.414;9.872;2023-04-03T02:03:28;6.337070465;52.33306885
71551;DHT22;59367;48.414;9.872;2023-04-03T02:04:35;6.350421906;52.18200684
71551;DHT22;59367;48.414;9.872;2023-04-03T02:05:42;6.350421906;52.37579346
71551;DHT22;59367;48.414;9.872;2023-04-03T02:06:49;6.307697296;52.40325928
71551;DHT22;59367;48.414;9.872;2023-04-03T02:07:56;6.323719025;51.85699463
71551;DHT22;59367;48.414;9.872;2023-04-03T02:09:03;6.307697296;51.70288086
71551;DHT22;59367;48.414;9.872;2023-04-03T02:10:11;6.337070465;51.82647705
71551;DHT22;59367;48.414;9.872;2023-04-03T02:11:18;6.323719025;51.85699463
71551;DHT22;59367;48.414;9.872;2023-04-03T02:12:25;6.307697296;51.66015625
71551;DHT22;59367;48.414;9.872;2023-04-03T02:13:32;6.307697296;51.88598633
71551;DHT22;59367;48.414;9.872;2023-04-03T02:14:38;6.307697296;51.83105469
71551;DHT22;59367;48.414;9.872;2023-04-03T02:15:45;6.280994415;52.00042725
71551;DHT22;59367;48.414;9.872;2023-04-03T02:16:53;6.280994415;51.95770264
71551;DHT22;59367;48.414;9.872;2023-04-03T02:18:00;6.294345856;51.82952881
71551;DHT22;59367;48.414;9.872;2023-04-03T02:19:07;6.307697296;51.71203613
71551;DHT22;59367;48.414;9.872;2023-04-03T02:20:14;6.280994415;51.52740479
71551;DHT22;59367;48.414;9.872;2023-04-03T02:21:21;6.251621246;51.52282715
71551;DHT22;59367;48.414;9.872;2023-04-03T02:22:28;6.251621246;51.50146484
71551;DHT22;59367;48.414;9.872;2023-04-03T02:23:35;6.267642975;51.3092041
71551;DHT22;59367;48.414;9.872;2023-04-03T02:24:42;6.251621246;51.17645264
71551;DHT22;59367;48.414;9.872;2023-04-03T02:25:49;6.211566925;51.1932373
71551;DHT22;59367;48.414;9.872;2023-04-03T02:26:56;6.224918365;51.64794922
71551;DHT22;59367;48.414;9.872;2023-04-03T02:28:03;6.211566925;51.27105713
71551;DHT22;59367;48.414;9.872;2023-04-03T02:29:10;6.195545197;51.5045166
71551;DHT22;59367;48.414;9.872;2023-04-03T02:30:18;6.211566925;51.60522461
71551;DHT22;59367;48.414;9.872;2023-04-03T02:31:25;6.224918365;51.61590576
71551;DHT22;59367;48.414;9.872;2023-04-03T02:32:32;6.211566925;51.88446045
71551;DHT22;59367;48.414;9.872;2023-04-03T02:33:39;6.238269806;51.76696777
71551;DHT22;59367;48.414;9.872;2023-04-03T02:34:46;6.267642975;51.66473389
71551;DHT22;59367;48.414;9.872;2023-04-03T02:35:56;6.251621246;51.60980225
71551;DHT22;59367;48.414;9.872;2023-04-03T02:37:03;6.280994415;52.02331543
71551;DHT22;59367;48.414;9.872;2023-04-03T02:38:10;6.307697296;52.24151611
71551;DHT22;59367;48.414;9.872;2023-04-03T02:39:17;6.323719025;52.15911865
71551;DHT22;59367;48.414;9.872;2023-04-03T02:40:24;6.323719025;52.28729248
71551;DHT22;59367;48.414;9.872;2023-04-03T02:41:31;6.323719025;52.34222412
71551;DHT22;59367;48.414;9.872;2023-04-03T02:42:38;6.337070465;51.7288208
71551;DHT22;59367;48.414;9.872;2023-04-03T02:43:45;6.337070465;51.66168213
71551;DHT22;59367;48.414;9.872;2023-04-03T02:44:52;6.307697296;51.43280029
71551;DHT22;59367;48.414;9.872;2023-04-03T02:45:59;6.294345856;51.58233643
71551;DHT22;59367;48.414;9.872;2023-04-03T02:47:06;6.280994415;51.4831543
71551;DHT22;59367;48.414;9.872;2023-04-03T02:48:13;6.294345856;51.82037354
71551;DHT22;59367;48.414;9.872;2023-04-03T02:49:20;6.307697296;52.20031738
71551;DHT22;59367;48.414;9.872;2023-04-03T02:50:27;6.251621246;51.94396973
71551;DHT22;59367;48.414;9.872;2023-04-03T02:51:34;6.307697296;51.81121826
71551;DHT22;59367;48.414;9.872;2023-04-03T02:52:41;6.307697296;51.66015625
71551;DHT22;59367;48.414;9.872;2023-04-03T02:53:48;6.307697296;51.78833008
71551;DHT22;59367;48.414;9.872;2023-04-03T02:54:55;6.323719025;51.71508789
71551;DHT22;59367;48.414;9.872;2023-04-03T02:56:02;6.280994415;51.61132813
71551;DHT22;59367;48.414;9.872;2023-04-03T02:57:09;6.294345856;51.74407959
71551;DHT22;59367;48.414;9.872;2023-04-03T02:58:16;6.267642975;51.96685791
71551;DHT22;59367;48.414;9.872;2023-04-03T02:59:23;6.294345856;52.30560303
71551;DHT22;59367;48.414;9.872;2023-04-03T03:00:30;6.323719025;52.50244141
71551;DHT22;59367;48.414;9.872;2023-04-03T03:01:37;6.323719025;52.69927979
71551;DHT22;59367;48.414;9.872;2023-04-03T03:02:44;6.307697296;52.28424072
71551;DHT22;59367;48.414;9.872;2023-04-03T03:03:51;6.337070465;52.41699219
71551;DHT22;59367;48.414;9.872;2023-04-03T03:04:58;6.280994415;51.91345215
71551;DHT22;59367;48.414;9.872;2023-04-03T03:06:11;6.294345856;52.06756592
71551;DHT22;59367;48.414;9.872;2023-04-03T03:07:18;6.294345856;52.41241455
71551;DHT22;59367;48.414;9.872;2023-04-03T03:08:25;6.280994415;52.3147583
71551;DHT22;59367;48.414;9.872;2023-04-03T03:09:32;6.238269806;52.02789307
71551;DHT22;59367;48.414;9.872;2023-04-03T03:10:39;6.224918365;52.23236084
71551;DHT22;59367;48.414;9.872;2023-04-03T03:11:46;6.251621246;52.4810791
71551;DHT22;59367;48.414;9.872;2023-04-03T03:12:53;6.251621246;52.64587402
71551;DHT22;59367;48.414;9.872;2023-04-03T03:14:00;6.238269806;52.68707275
71551;DHT22;59367;48.414;9.872;2023-04-03T03:15:08;6.267642975;52.90679932
71551;DHT22;59367;48.414;9.872;2023-04-03T03:16:15;6.267642975;52.79693604
71551;DHT22;59367;48.414;9.872;2023-04-03T03:17:22;6.267642975;52.61688232
71551;DHT22;59367;48.414;9.872;2023-04-03T03:18:29;6.267642975;53.05786133
71551;DHT22;59367;48.414;9.872;2023-04-03T03:20:39;6.294345856;52.96478271
71551;DHT22;59367;48.414;9.872;2023-04-03T03:21:46;6.280994415;53.00598145
71551;DHT22;59367;48.414;9.872;2023-04-03T03:22:53;6.280994415;52.32543945
71551;DHT22;59367;48.414;9.872;2023-04-03T03:24:00;6.251621246;52.24609375
71551;DHT22;59367;48.414;9.872;2023-04-03T03:25:08;6.267642975;52.25982666
71551;DHT22;59367;48.414;9.872;2023-04-03T03:26:15;6.267642975;52.24761963
71551;DHT22;59367;48.414;9.872;2023-04-03T03:27:22;6.251621246;51.953125
71551;DHT22;59367;48.414;9.872;2023-04-03T03:28:30;6.238269806;51.71661377
71551;DHT22;59367;48.414;9.872;2023-04-03T03:29:37;6.251621246;51.89056396
71551;DHT22;59367;48.414;9.872;2023-04-03T03:30:44;6.224918365;51.84326172
71551;DHT22;59367;48.414;9.872;2023-04-03T03:31:51;6.195545197;51.98974609
71551;DHT22;59367;48.414;9.872;2023-04-03T03:32:58;6.224918365;51.73492432
71551;DHT22;59367;48.414;9.872;2023-04-03T03:34:05;6.182193756;51.42822266
71551;DHT22;59367;48.414;9.872;2023-04-03T03:35:12;6.195545197;51.76239014
71551;DHT22;59367;48.414;9.872;2023-04-03T03:36:19;6.211566925;51.62506104
71551;DHT22;59367;48.414;9.872;2023-04-03T03:37:26;6.211566925;51.56097412
71551;DHT22;59367;48.414;9.872;2023-04-03T03:38:33;6.211566925;51.85241699
71551;DHT22;59367;48.414;9.872;2023-04-03T03:39:40;6.195545197;51.11694336
71551;DHT22;59367;48.414;9.872;2023-04-03T03:40:48;6.211566925;51.12915039
71551;DHT22;59367;48.414;9.872;2023-04-03T03:41:55;6.182193756;51.17034912
71551;DHT22;59367;48.414;9.872;2023-04-03T03:43:02;6.182193756;50.91094971
71551;DHT22;59367;48.414;9.872;2023-04-03T03:44:09;6.195545197;50.88806152
71551;DHT22;59367;48.414;9.872;2023-04-03T03:45:16;6.211566925;50.5355835
71551;DHT22;59367;48.414;9.872;2023-04-03T03:46:23;6.168842316;50.40130615
71551;DHT22;59367;48.414;9.872;2023-04-03T03:47:30;6.168842316;50.35705566
71551;DHT22;59367;48.414;9.872;2023-04-03T03:48:37;6.195545197;50.09155273
71551;DHT22;59367;48.414;9.872;2023-04-03T03:49:44;6.195545197;50.2746582
71551;DHT22;59367;48.414;9.872;2023-04-03T03:50:52;6.195545197;50.30670166
71551;DHT22;59367;48.414;9.872;2023-04-03T03:51:59;6.182193756;50.45623779
71551;DHT22;59367;48.414;9.872;2023-04-03T03:53:06;6.195545197;50.36010742
71551;DHT22;59367;48.414;9.872;2023-04-03T03:54:14;6.182193756;50.25024414
71551;DHT22;59367;48.414;9.872;2023-04-03T03:55:21;6.195545197;50.39215088
71551;DHT22;59367;48.414;9.872;2023-04-03T03:56:28;6.182193756;50.30517578
71551;DHT22;59367;48.414;9.872;2023-04-03T03:57:35;6.195545197;50.41503906
71551;DHT22;59367;48.414;9.872;2023-04-03T03:58:42;6.195545197;49.70550537
71551;DHT22;59367;48.414;9.872;2023-04-03T03:59:49;6.182193756;49.89013672
71551;DHT22;59367;48.414;9.872;2023-04-03T04:00:56;6.152820587;50.06408691
71551;DHT22;59367;48.414;9.872;2023-04-03T04:02:03;6.168842316;49.81994629
71551;DHT22;59367;48.414;9.872;2023-04-03T04:03:10;6.168842316;49.5513916
71551;DHT22;59367;48.414;9.872;2023-04-03T04:04:17;6.152820587;48.99749756
71551;DHT22;59367;48.414;9.872;2023-04-03T04:05:25;6.096740723;48.64959717
71551;DHT22;59367;48.414;9.872;2023-04-03T04:06:32;6.112762451;49.08752441
71551;DHT22;59367;48.414;9.872;2023-04-03T04:07:39;6.070037842;48.51989746
71551;DHT22;59367;48.414;9.872;2023-04-03T04:08:46;6.056686401;48.6114502
71551;DHT22;59367;48.414;9.872;2023-04-03T04:09:53;6.040664673;48.89068604
71551;DHT22;59367;48.414;9.872;2023-04-03T04:11:00;6.040664673;48.95935059
71551;DHT22;59367;48.414;9.872;2023-04-03T04:12:07;6.013961792;48.88763428
71551;DHT22;59367;48.414;9.872;2023-04-03T04:13:14;5.997940063;49.10736084
71551;DHT22;59367;48.414;9.872;2023-04-03T04:14:21;5.984588623;48.86016846
71551;DHT22;59367;48.414;9.872;2023-04-03T04:15:28;5.957885742;49.1027832
71551;DHT22;59367;48.414;9.872;2023-04-03T04:16:35;5.971237183;49.06921387
71551;DHT22;59367;48.414;9.872;2023-04-03T04:17:43;5.941864014;48.66638184
71551;DHT22;59367;48.414;9.872;2023-04-03T04:18:50;5.901809692;48.53363037
71551;DHT22;59367;48.414;9.872;2023-04-03T04:19:57;5.872432709;48.57635498
71551;DHT22;59367;48.414;9.872;2023-04-03T04:21:04;5.885787964;49.04785156
71551;DHT22;59367;48.414;9.872;2023-04-03T04:22:11;5.915161133;49.1104126
71551;DHT22;59367;48.414;9.872;2023-04-03T04:23:18;5.872432709;48.73046875
71551;DHT22;59367;48.414;9.872;2023-04-03T04:24:25;5.885787964;49.11956787
71551;DHT22;59367;48.414;9.872;2023-04-03T04:25:32;5.885787964;48.94104004
71551;DHT22;59367;48.414;9.872;2023-04-03T04:26:39;5.885787964;49.15313721
71551;DHT22;59367;48.414;9.872;2023-04-03T04:27:47;5.872432709;48.76403809
71551;DHT22;59367;48.414;9.872;2023-04-03T04:28:54;5.872432709;49.23400879
71551;DHT22;59367;48.414;9.872;2023-04-03T04:30:01;5.885787964;49.31793213
71551;DHT22;59367;48.414;9.872;2023-04-03T04:31:08;5.872432709;49.63226318
71551;DHT22;59367;48.414;9.872;2023-04-03T04:32:15;5.901809692;49.4140625
71551;DHT22;59367;48.414;9.872;2023-04-03T04:33:22;5.872432709;49.56359863
71551;DHT22;59367;48.414;9.872;2023-04-03T04:34:29;5.915161133;49.77874756
71551;DHT22;59367;48.414;9.872;2023-04-03T04:35:36;5.928512573;49.81231689
71551;DHT22;59367;48.414;9.872;2023-04-03T04:36:43;5.928512573;49.92980957
71551;DHT22;59367;48.414;9.872;2023-04-03T04:37:50;5.941864014;49.91149902
71551;DHT22;59367;48.414;9.872;2023-04-03T04:38:57;5.971237183;49.28131104
71551;DHT22;59367;48.414;9.872;2023-04-03T04:40:05;5.957885742;49.41864014
71551;DHT22;59367;48.414;9.872;2023-04-03T04:41:12;5.957885742;49.54986572
71551;DHT22;59367;48.414;9.872;2023-04-03T04:42:19;5.941864014;49.45373535
71551;DHT22;59367;48.414;9.872;2023-04-03T04:43:26;5.984588623;49.62310791
71551;DHT22;59367;48.414;9.872;2023-04-03T04:44:33;5.971237183;49.40948486
71551;DHT22;59367;48.414;9.872;2023-04-03T04:45:40;5.971237183;49.26757813
71551;DHT22;59367;48.414;9.872;2023-04-03T04:46:47;5.941864014;49.54681396
71551;DHT22;59367;48.414;9.872;2023-04-03T04:47:54;5.957885742;49.46746826
71551;DHT22;59367;48.414;9.872;2023-04-03T04:49:01;5.957885742;49.54986572
71551;DHT22;59367;48.414;9.872;2023-04-03T04:50:09;5.984588623;49.67956543
71551;DHT22;59367;48.414;9.872;2023-04-03T04:51:17;6.013961792;49.72991943
71551;DHT22;59367;48.414;9.872;2023-04-03T04:52:24;6.013961792;49.75585938
71551;DHT22;59367;48.414;9.872;2023-04-03T04:53:31;6.013961792;49.81231689
71551;DHT22;59367;48.414;9.872;2023-04-03T04:54:38;6.027313232;50.40588379
71551;DHT22;59367;48.414;9.872;2023-04-03T04:55:45;6.040664673;50.16937256
71551;DHT22;59367;48.414;9.872;2023-04-03T04:56:52;6.040664673;50.23345947
71551;DHT22;59367;48.414;9.872;2023-04-03T04:57:59;6.056686401;49.96795654
71551;DHT22;59367;48.414;9.872;2023-04-03T04:59:06;6.027313232;50.07171631
71551;DHT22;59367;48.414;9.872;2023-04-03T05:00:14;6.040664673;50.05950928
71551;DHT22;59367;48.414;9.872;2023-04-03T05:01:22;6.040664673;50.09460449
71551;DHT22;59367;48.414;9.872;2023-04-03T05:02:29;6.070037842;50.05493164
71551;DHT22;59367;48.414;9.872;2023-04-03T05:03:36;6.070037842;50.23651123
71551;DHT22;59367;48.414;9.872;2023-04-03T05:04:43;6.056686401;50.12817383
71551;DHT22;59367;48.414;9.872;2023-04-03T05:05:50;6.056686401;50.10528564
71551;DHT22;59367;48.414;9.872;2023-04-03T05:06:57;6.056686401;49.94506836
71551;DHT22;59367;48.414;9.872;2023-04-03T05:08:04;6.040664673;50.15869141
71551;DHT22;59367;48.414;9.872;2023-04-03T05:09:11;6.040664673;50.28839111
71551;DHT22;59367;48.414;9.872;2023-04-03T05:10:19;6.040664673;50.39672852
71551;DHT22;59367;48.414;9.872;2023-04-03T05:11:26;6.040664673;50.51574707
71551;DHT22;59367;48.414;9.872;2023-04-03T05:12:33;6.027313232;50.35095215
71551;DHT22;59367;48.414;9.872;2023-04-03T05:13:40;6.040664673;50.54473877
71551;DHT22;59367;48.414;9.872;2023-04-03T05:14:47;6.040664673;50.57983398
71551;DHT22;59367;48.414;9.872;2023-04-03T05:15:54;6.040664673;50.43945313
71551;DHT22;59367;48.414;9.872;2023-04-03T05:17:01;6.056686401;50.55847168
71551;DHT22;59367;48.414;9.872;2023-04-03T05:18:08;6.056686401;50.5065918
71551;DHT22;59367;48.414;9.872;2023-04-03T05:19:15;6.070037842;50.88653564
71551;DHT22;59367;48.414;9.872;2023-04-03T05:20:22;6.056686401;50.74157715
71551;DHT22;59367;48.414;9.872;2023-04-03T05:21:29;6.056686401;50.71258545
71551;DHT22;59367;48.414;9.872;2023-04-03T05:22:37;6.070037842;50.6362915
71551;DHT22;59367;48.414;9.872;2023-04-03T05:23:44;6.040664673;50.92468262
71551;DHT22;59367;48.414;9.872;2023-04-03T05:24:51;6.056686401;50.89569092
71551;DHT22;59367;48.414;9.872;2023-04-03T05:25:59;6.056686401;51.18560791
71551;DHT22;59367;48.414;9.872;2023-04-03T05:27:07;6.056686401;51.01165771
71551;DHT22;59367;48.414;9.872;2023-04-03T05:28:14;6.056686401;50.97045898
71551;DHT22;59367;48.414;9.872;2023-04-03T05:29:21;6.040664673;51.3671875
71551;DHT22;59367;48.414;9.872;2023-04-03T05:30:29;6.027313232;50.9979248
71551;DHT22;59367;48.414;9.872;2023-04-03T05:31:36;6.083389282;50.97351074
71551;DHT22;59367;48.414;9.872;2023-04-03T05:32:43;6.083389282;51.27563477
71551;DHT22;59367;48.414;9.872;2023-04-03T05:33:50;6.112762451;51.25732422
71551;DHT22;59367;48.414;9.872;2023-04-03T05:34:57;6.139469147;51.0559082
71551;DHT22;59367;48.414;9.872;2023-04-03T05:36:09;6.126117706;51.35498047
71551;DHT22;59367;48.414;9.872;2023-04-03T05:37:16;6.083389282;51.13372803
71551;DHT22;59367;48.414;9.872;2023-04-03T05:38:23;6.096740723;51.24511719
71551;DHT22;59367;48.414;9.872;2023-04-03T05:39:30;6.096740723;51.47247314
71551;DHT22;59367;48.414;9.872;2023-04-03T05:40:37;6.070037842;51.53198242
71551;DHT22;59367;48.414;9.872;2023-04-03T05:41:44;6.096740723;51.54571533
71551;DHT22;59367;48.414;9.872;2023-04-03T05:42:51;6.112762451;51.70135498
71551;DHT22;59367;48.414;9.872;2023-04-03T05:43:58;6.139469147;51.64794922
71551;DHT22;59367;48.414;9.872;2023-04-03T05:45:06;6.152820587;51.36871338
71551;DHT22;59367;48.414;9.872;2023-04-03T05:46:16;6.112762451;51.76239014
71551;DHT22;59367;48.414;9.872;2023-04-03T05:47:24;6.152820587;51.90887451
71551;DHT22;59367;48.414;9.872;2023-04-03T05:48:31;6.152820587;51.83410645
71551;DHT22;59367;48.414;9.872;2023-04-03T05:49:38;6.168842316;51.73950195
71551;DHT22;59367;48.414;9.872;2023-04-03T05:50:45;6.168842316;51.71661377
71551;DHT22;59367;48.414;9.872;2023-04-03T05:51:53;6.182193756;51.77154541
71551;DHT22;59367;48.414;9.872;2023-04-03T05:53:01;6.195545197;52.01263428
71551;DHT22;59367;48.414;9.872;2023-04-03T05:54:13;6.238269806;52.22320557
71551;DHT22;59367;48.414;9.872;2023-04-03T05:55:22;6.267642975;52.58178711
71551;DHT22;59367;48.414;9.872;2023-04-03T05:56:29;6.251621246;52.49328613
71551;DHT22;59367;48.414;9.872;2023-04-03T05:57:36;6.280994415;52.47650146
71551;DHT22;59367;48.414;9.872;2023-04-03T05:58:43;6.323719025;52.36206055
71551;DHT22;59367;48.414;9.872;2023-04-03T05:59:51;6.280994415;51.95770264
71551;DHT22;59367;48.414;9.872;2023-04-03T06:00:58;6.280994415;51.91345215
71551;DHT22;59367;48.414;9.872;2023-04-03T06:02:05;6.323719025;52.28729248
71551;DHT22;59367;48.414;9.872;2023-04-03T06:03:14;6.307697296;51.60522461